Time;durP1;ratioP1;P1;durP2;ratioP2;P2;SDS_P1;SDS_P2;PMS_P1;PMS_P2;Temp;Humidity;BMP_temperature;BMP_pressure;BME280_temperature;BME280_humidity;BME280_pressure;Samples;Min_cycle;Max_cycle;Signal;HPM_P1;HPM_P2
2022/03/15 00:01:24;;;;;;;125.55;64.35;;;;;;;-0.35;63.74;102624.48;1740435;81;21101;-81
2022/03/15 00:03:50;;;;;;;138.28;65.70;;;;;;;-0.36;63.89;102615.27;1737727;81;21655;-81
2022/03/15 00:06:17;;;;;;;128.50;65.62;;;;;;;-0.37;63.99;102618.25;1738584;81;22451;-81
2022/03/15 00:08:45;;;;;;;134.43;69.37;;;;;;;-0.37;64.06;102615.66;1736935;81;20998;-81
2022/03/15 00:11:12;;;;;;;135.72;67.47;;;;;;;-0.38;64.16;102613.82;1738234;81;21089;-80
2022/03/15 00:13:39;;;;;;;134.75;67.42;;;;;;;-0.39;64.20;102610.72;1738659;81;21101;-80
2022/03/15 00:16:10;;;;;;;129.10;67.10;;;;;;;-0.41;64.21;102610.56;1746994;81;21069;-80
2022/03/15 00:18:37;;;;;;;130.03;65.75;;;;;;;-0.40;64.27;102602.41;1725532;82;21765;-80
2022/03/15 00:21:05;;;;;;;140.12;70.17;;;;;;;-0.42;64.33;102595.78;1739296;81;21074;-80
2022/03/15 00:23:32;;;;;;;131.40;66.75;;;;;;;-0.43;64.41;102594.38;1740305;81;21052;-80
2022/03/15 00:26:00;;;;;;;136.88;67.40;;;;;;;-0.46;64.48;102588.88;1748661;81;21085;-80
2022/03/15 00:28:26;;;;;;;134.25;66.97;;;;;;;-0.49;64.57;102590.80;1748528;81;21069;-80
2022/03/15 00:30:53;;;;;;;122.95;65.67;;;;;;;-0.51;64.61;102589.70;1746217;80;21766;-80
2022/03/15 00:33:19;;;;;;;128.82;64.53;;;;;;;-0.53;64.75;102592.91;1744404;81;21658;-81
2022/03/15 00:35:47;;;;;;;122.30;64.37;;;;;;;-0.54;64.83;102585.92;1735644;81;21100;-81
2022/03/15 00:38:14;;;;;;;129.82;68.07;;;;;;;-0.57;64.89;102589.10;1702077;83;21099;-81
2022/03/15 00:40:40;;;;;;;118.87;63.42;;;;;;;-0.60;64.90;102587.53;1733157;82;21084;-81
2022/03/15 00:43:07;;;;;;;120.72;64.58;;;;;;;-0.62;65.02;102595.48;1748241;81;21765;-81
2022/03/15 00:45:34;;;;;;;128.47;66.95;;;;;;;-0.65;65.10;102589.64;1735756;81;21076;-80
2022/03/15 00:48:00;;;;;;;128.05;65.40;;;;;;;-0.66;65.16;102591.70;1733135;81;21077;-80
2022/03/15 00:50:29;;;;;;;127.32;64.97;;;;;;;-0.67;65.29;102587.67;1698639;83;21057;-79
2022/03/15 00:52:56;;;;;;;128.05;66.65;;;;;;;-0.67;65.35;102589.87;1701440;83;21574;-80
2022/03/15 00:55:23;;;;;;;114.28;61.50;;;;;;;-0.67;65.41;102582.50;1690324;82;21777;-79
2022/03/15 00:57:49;;;;;;;127.85;64.17;;;;;;;-0.68;65.51;102580.27;1721370;82;22379;-80
2022/03/15 01:00:17;;;;;;;125.65;64.67;;;;;;;-0.69;65.54;102577.56;1701700;82;21080;-80
2022/03/15 01:02:44;;;;;;;133.00;67.10;;;;;;;-0.69;65.60;102578.85;1747816;81;21104;-80
2022/03/15 01:05:10;;;;;;;123.02;64.82;;;;;;;-0.71;65.66;102576.11;1737215;81;21068;-80
2022/03/15 01:07:37;;;;;;;122.02;63.63;;;;;;;-0.72;65.73;102577.23;1735098;81;22597;-80
2022/03/15 01:10:04;;;;;;;121.77;64.95;;;;;;;-0.74;65.82;102579.67;1700789;83;21629;-80
2022/03/15 01:12:31;;;;;;;117.75;62.73;;;;;;;-0.76;65.85;102576.02;1732141;81;21131;-80
2022/03/15 01:14:58;;;;;;;118.75;63.45;;;;;;;-0.78;65.86;102572.37;1712177;82;22288;-80
2022/03/15 01:17:24;;;;;;;122.22;63.75;;;;;;;-0.78;65.90;102565.91;1723505;81;21073;-81
2022/03/15 01:19:51;;;;;;;120.82;63.75;;;;;;;-0.78;65.93;102556.86;1705529;83;21704;-80
2022/03/15 01:22:18;;;;;;;127.00;65.10;;;;;;;-0.76;65.97;102562.19;1730051;81;21159;-80
2022/03/15 01:24:44;;;;;;;112.12;61.23;;;;;;;-0.79;65.99;102556.31;1733050;81;21065;-80
2022/03/15 01:27:11;;;;;;;116.67;62.95;;;;;;;-0.81;66.07;102557.83;1735165;81;22043;-80
2022/03/15 01:29:37;;;;;;;117.95;63.73;;;;;;;-0.85;66.12;102554.03;1740655;81;21097;-79
2022/03/15 01:32:04;;;;;;;116.15;62.45;;;;;;;-0.86;66.14;102550.02;1745521;81;21742;-80
2022/03/15 01:34:32;;;;;;;111.03;62.30;;;;;;;-0.88;66.19;102542.47;1734955;81;21113;-80
2022/03/15 01:36:58;;;;;;;124.22;61.33;;;;;;;-0.90;66.30;102549.16;1737811;81;21065;-80
2022/03/15 01:39:25;;;;;;;123.47;65.12;;;;;;;-0.91;66.35;102543.08;1761241;81;21053;-80
2022/03/15 01:41:52;;;;;;;117.05;62.45;;;;;;;-0.89;66.42;102543.24;1758839;80;21097;-80
2022/03/15 01:44:21;;;;;;;126.58;63.45;;;;;;;-0.86;66.47;102541.87;1759465;81;21729;-80
2022/03/15 01:46:50;;;;;;;125.60;65.30;;;;;;;-0.88;66.39;102546.34;1731611;81;21057;-79
2022/03/15 01:49:16;;;;;;;125.12;62.88;;;;;;;-0.90;66.48;102547.51;1742237;81;21667;-80
2022/03/15 01:51:45;;;;;;;116.88;63.40;;;;;;;-0.93;66.50;102560.11;1739541;81;21048;-79
2022/03/15 01:54:11;;;;;;;113.57;63.95;;;;;;;-0.96;66.49;102567.94;1747626;81;21073;-79
2022/03/15 01:56:40;;;;;;;124.67;64.25;;;;;;;-1.00;66.49;102561.16;1738770;81;21828;-79
2022/03/15 01:59:10;;;;;;;114.65;63.05;;;;;;;-1.04;66.54;102557.73;1740568;81;21021;-79
2022/03/15 02:01:37;;;;;;;115.35;63.75;;;;;;;-1.07;66.67;102556.16;1752764;81;22268;-79
2022/03/15 02:04:05;;;;;;;117.37;62.40;;;;;;;-1.05;66.80;102558.52;1740342;81;21709;-79
2022/03/15 02:06:36;;;;;;;123.65;66.60;;;;;;;-1.04;66.91;102557.73;1756620;80;21026;-79
2022/03/15 02:09:13;;;;;;;122.90;63.95;;;;;;;-1.03;66.89;102557.38;1743220;81;22907;-79
2022/03/15 02:11:43;;;;;;;118.30;62.25;;;;;;;-1.05;66.97;102548.53;1720263;81;21131;-80
2022/03/15 02:14:09;;;;;;;117.97;62.25;;;;;;;-1.03;67.10;102546.66;1740835;81;21064;-80
2022/03/15 02:16:36;;;;;;;111.65;62.83;;;;;;;-1.01;67.10;102543.84;1745091;81;21069;-79
2022/03/15 02:19:03;;;;;;;119.67;65.42;;;;;;;-1.04;67.05;102547.40;1733217;81;21080;-80
2022/03/15 02:21:29;;;;;;;115.65;62.00;;;;;;;-1.05;67.09;102539.13;1734981;81;22138;-80
2022/03/15 02:23:56;;;;;;;116.50;62.33;;;;;;;-1.07;67.06;102537.12;1735866;81;21060;-80
2022/03/15 02:26:23;;;;;;;114.20;61.98;;;;;;;-1.13;67.21;102529.67;1743644;81;21123;-80
2022/03/15 02:28:49;;;;;;;114.77;59.60;;;;;;;-1.14;67.28;102531.75;1735228;81;21713;-81
2022/03/15 02:31:16;;;;;;;107.03;59.03;;;;;;;-1.11;67.35;102544.05;1736162;81;21059;-81
2022/03/15 02:33:43;;;;;;;113.17;61.13;;;;;;;-1.10;67.30;102540.33;1735141;81;22531;-81
2022/03/15 02:36:09;;;;;;;110.12;60.38;;;;;;;-1.13;67.29;102537.42;1737738;81;21008;-81
2022/03/15 02:38:36;;;;;;;115.80;62.00;;;;;;;-1.15;67.26;102544.50;1743321;81;21069;-80
2022/03/15 02:41:03;;;;;;;109.00;59.48;;;;;;;-1.20;67.24;102534.63;1694409;83;21671;-80
2022/03/15 02:43:31;;;;;;;109.35;57.67;;;;;;;-1.22;67.16;102542.60;1725720;82;21030;-84
2022/03/15 02:45:57;;;;;;;111.37;58.65;;;;;;;-1.26;67.18;102548.58;1741561;82;21743;-85
2022/03/15 02:48:26;;;;;;;114.82;59.27;;;;;;;-1.32;67.18;102554.42;1725863;82;21474;-84
2022/03/15 02:50:53;;;;;;;111.20;60.25;;;;;;;-1.38;67.19;102552.13;1741231;82;21061;-84
2022/03/15 02:53:20;;;;;;;116.88;59.85;;;;;;;-1.46;67.28;102546.19;1735652;82;21140;-84
2022/03/15 02:55:47;;;;;;;116.47;61.08;;;;;;;-1.47;67.41;102548.61;1741394;81;21242;-83
2022/03/15 02:58:15;;;;;;;109.12;61.92;;;;;;;-1.48;67.55;102550.64;1727509;81;21777;-84
2022/03/15 03:00:42;;;;;;;110.75;60.25;;;;;;;-1.51;67.63;102544.80;1724939;81;21050;-84
2022/03/15 03:03:09;;;;;;;110.52;59.67;;;;;;;-1.52;67.63;102548.16;1748045;82;21544;-84
2022/03/15 03:05:35;;;;;;;112.08;61.08;;;;;;;-1.55;67.74;102540.08;1745105;81;21225;-84
2022/03/15 03:08:05;;;;;;;114.20;59.58;;;;;;;-1.57;67.76;102544.18;1727296;82;21098;-84
2022/03/15 03:10:32;;;;;;;115.72;61.95;;;;;;;-1.59;67.89;102549.56;1734864;82;21750;-84
2022/03/15 03:12:59;;;;;;;115.35;61.30;;;;;;;-1.60;67.93;102551.59;1731434;81;21124;-84
2022/03/15 03:15:26;;;;;;;114.12;62.03;;;;;;;-1.60;68.05;102548.63;1740537;82;21089;-84
2022/03/15 03:17:52;;;;;;;105.55;59.48;;;;;;;-1.61;68.11;102550.69;1725162;82;21062;-84
2022/03/15 03:20:21;;;;;;;106.60;58.38;;;;;;;-1.60;68.16;102557.67;1722949;82;21069;-84
2022/03/15 03:22:52;;;;;;;109.70;57.00;;;;;;;-1.60;68.17;102556.38;1735498;82;21818;-85
2022/03/15 03:25:18;;;;;;;103.90;57.35;;;;;;;-1.64;68.20;102545.20;1744679;81;21027;-84
2022/03/15 03:27:46;;;;;;;104.67;59.05;;;;;;;-1.65;68.31;102548.91;1723565;81;21080;-85
2022/03/15 03:30:13;;;;;;;112.25;58.33;;;;;;;-1.65;68.38;102554.08;1726139;82;21073;-83
2022/03/15 03:32:41;;;;;;;111.62;59.35;;;;;;;-1.64;68.45;102554.24;1738071;82;21106;-84
2022/03/15 03:35:11;;;;;;;110.22;59.58;;;;;;;-1.65;68.51;102553.72;1722494;82;21782;-85
2022/03/15 03:37:41;;;;;;;112.17;57.17;;;;;;;-1.64;68.65;102550.37;1705607;82;21089;-85
2022/03/15 03:40:09;;;;;;;106.15;58.83;;;;;;;-1.63;68.62;102546.14;1727755;83;21073;-85
2022/03/15 03:42:36;;;;;;;95.53;56.20;;;;;;;-1.63;68.63;102543.17;1722197;82;21081;-85
2022/03/15 03:45:05;;;;;;;104.55;56.18;;;;;;;-1.60;68.64;102543.85;1737680;82;21073;-85
2022/03/15 03:47:31;;;;;;;104.63;56.35;;;;;;;-1.60;68.70;102546.44;1742288;81;22546;-85
2022/03/15 03:49:58;;;;;;;98.45;54.33;;;;;;;-1.61;68.63;102550.69;1722213;82;21587;-84
2022/03/15 03:52:24;;;;;;;109.15;58.65;;;;;;;-1.63;68.56;102549.63;1746175;81;21007;-85
2022/03/15 03:54:51;;;;;;;100.25;55.58;;;;;;;-1.65;68.58;102537.30;1732561;82;21101;-85
2022/03/15 03:57:18;;;;;;;100.90;56.37;;;;;;;-1.67;68.73;102525.90;1730369;81;21081;-86
2022/03/15 03:59:44;;;;;;;100.00;54.70;;;;;;;-1.65;68.81;102531.78;1733191;81;22538;-85
2022/03/15 04:02:11;;;;;;;98.92;53.38;;;;;;;-1.63;68.82;102534.14;1747901;82;21002;-85
2022/03/15 04:04:37;;;;;;;110.80;56.92;;;;;;;-1.66;68.68;102537.68;1726887;81;21145;-85
2022/03/15 04:07:07;;;;;;;93.92;55.35;;;;;;;-1.68;68.77;102532.74;1734692;82;21041;-85
2022/03/15 04:09:33;;;;;;;100.27;55.55;;;;;;;-1.72;68.66;102521.57;1724202;81;22083;-85
2022/03/15 04:11:59;;;;;;;101.22;54.48;;;;;;;-1.72;68.86;102524.15;1726593;81;22506;-85
2022/03/15 04:14:29;;;;;;;104.03;54.08;;;;;;;-1.71;68.87;102522.09;1720194;81;21069;-85
2022/03/15 04:16:56;;;;;;;100.22;54.38;;;;;;;-1.71;68.86;102521.19;1720615;82;21768;-85
2022/03/15 04:19:23;;;;;;;100.67;54.23;;;;;;;-1.73;68.89;102527.47;1734145;82;21093;-84
2022/03/15 04:21:49;;;;;;;107.55;56.30;;;;;;;-1.75;68.87;102518.66;1745714;82;21120;-85
2022/03/15 04:24:18;;;;;;;102.70;55.70;;;;;;;-1.78;68.91;102521.85;1724503;82;21744;-84
2022/03/15 04:26:47;;;;;;;100.53;54.48;;;;;;;-1.80;68.92;102516.91;1727535;82;21144;-85
2022/03/15 04:29:14;;;;;;;101.67;55.52;;;;;;;-1.82;68.96;102509.39;1707547;82;21655;-85
2022/03/15 04:31:40;;;;;;;106.63;56.33;;;;;;;-1.84;68.97;102504.45;1732990;82;21101;-85
2022/03/15 04:34:07;;;;;;;111.57;54.93;;;;;;;-1.86;68.97;102507.61;1739921;82;21066;-85
2022/03/15 04:36:35;;;;;;;104.90;56.77;;;;;;;-1.92;68.86;102512.15;1725164;82;21775;-85
2022/03/15 04:39:03;;;;;;;108.78;56.05;;;;;;;-1.97;68.80;102519.44;1719856;81;21607;-85
2022/03/15 04:41:30;;;;;;;109.27;57.10;;;;;;;-2.01;68.83;102523.71;1720783;81;21069;-85
2022/03/15 04:43:57;;;;;;;113.00;59.77;;;;;;;-2.05;68.87;102518.99;1723805;81;21097;-84
2022/03/15 04:46:23;;;;;;;105.35;57.33;;;;;;;-2.07;69.11;102521.41;1737730;81;21069;-85
2022/03/15 04:48:50;;;;;;;111.80;58.50;;;;;;;-2.04;69.15;102513.09;1723643;82;21738;-79
2022/03/15 04:51:17;;;;;;;105.85;56.10;;;;;;;-2.06;69.20;102512.92;1724777;83;21077;-79
2022/03/15 04:53:43;;;;;;;110.70;58.35;;;;;;;-2.04;69.31;102510.52;1724590;81;21578;-79
2022/03/15 04:56:10;;;;;;;111.95;57.05;;;;;;;-2.05;69.29;102507.00;1724574;82;21065;-81
2022/03/15 04:58:37;;;;;;;105.05;55.73;;;;;;;-2.04;69.36;102512.70;1722508;83;21093;-81
2022/03/15 05:01:04;;;;;;;99.13;54.83;;;;;;;-2.05;69.31;102508.67;1724083;83;21764;-80
2022/03/15 05:03:33;;;;;;;96.00;52.13;;;;;;;-2.09;69.33;102512.59;1717192;81;21065;-80
2022/03/15 05:05:59;;;;;;;102.00;53.13;;;;;;;-2.15;69.35;102505.13;1735216;81;21112;-83
2022/03/15 05:08:26;;;;;;;97.75;53.75;;;;;;;-2.15;69.40;102509.00;1719065;81;21144;-84
2022/03/15 05:11:08;;;;;;;101.92;54.55;;;;;;;-2.23;69.49;102501.23;1732592;82;21112;-83
2022/03/15 05:13:44;;;;;;;102.30;54.67;;;;;;;-2.15;69.59;102512.88;1707145;82;21851;-83
2022/03/15 05:16:15;;;;;;;93.50;51.23;;;;;;;-2.13;69.62;102508.27;1736731;81;21645;-82
2022/03/15 05:18:40;;;;;;;95.07;52.25;;;;;;;-2.07;69.69;102512.38;1744719;81;21084;-83
2022/03/15 05:21:08;;;;;;;90.42;52.08;;;;;;;-2.05;69.67;102513.83;1759672;80;21546;-83
2022/03/15 05:23:35;;;;;;;95.22;51.37;;;;;;;-2.02;69.75;102518.03;1751402;81;21080;-83
2022/03/15 05:26:02;;;;;;;94.95;51.05;;;;;;;-1.96;69.86;102519.56;1723467;82;22639;-88
2022/03/15 05:28:33;;;;;;;100.78;53.30;;;;;;;-1.86;69.93;102516.30;1754551;81;21491;-90
2022/03/15 05:30:59;;;;;;;104.87;52.73;;;;;;;-1.79;69.90;102519.11;1740463;81;21116;-84
2022/03/15 05:33:28;;;;;;;97.75;54.75;;;;;;;-1.73;69.87;102518.44;1716172;82;21077;-83
2022/03/15 05:35:57;;;;;;;93.52;51.88;;;;;;;-1.68;69.78;102520.22;1743359;80;21065;-83
2022/03/15 05:38:25;;;;;;;105.50;52.00;;;;;;;-1.64;69.71;102525.84;1709342;82;21859;-89
2022/03/15 05:40:52;;;;;;;94.40;52.73;;;;;;;-1.60;69.66;102524.48;1747524;81;21053;-85
2022/03/15 05:43:19;;;;;;;103.12;55.60;;;;;;;-1.50;70.05;102519.52;1751771;81;21088;-85
2022/03/15 05:45:46;;;;;;;93.27;52.17;;;;;;;-1.34;70.03;102524.55;1723759;82;21077;-83
2022/03/15 05:48:13;;;;;;;105.40;55.10;;;;;;;-1.23;69.89;102517.50;1707569;81;21149;-79
2022/03/15 05:50:40;;;;;;;100.18;54.77;;;;;;;-1.16;69.73;102521.64;1734795;81;23035;-79
2022/03/15 05:53:07;;;;;;;92.22;52.78;;;;;;;-1.09;69.75;102515.04;1734646;81;21068;-79
2022/03/15 05:55:35;;;;;;;101.55;54.70;;;;;;;-0.99;69.79;102510.40;1733450;81;21646;-78
2022/03/15 05:58:02;;;;;;;93.27;52.80;;;;;;;-0.87;69.72;102515.48;1731403;81;21662;-78
2022/03/15 06:00:29;;;;;;;94.55;53.13;;;;;;;-0.78;69.70;102514.20;1733502;81;21103;-78
2022/03/15 06:02:55;;;;;;;94.22;53.58;;;;;;;-0.68;69.73;102514.72;1699827;82;21739;-78
2022/03/15 06:05:22;;;;;;;91.30;53.00;;;;;;;-0.55;69.76;102511.27;1731173;81;21129;-78
2022/03/15 06:07:50;;;;;;;119.00;57.35;;;;;;;-0.49;69.62;102495.08;1733507;81;21096;-79
2022/03/15 06:10:19;;;;;;;92.05;52.58;;;;;;;-0.34;69.46;102513.73;1733671;81;21127;-80
2022/03/15 06:12:45;;;;;;;96.25;52.85;;;;;;;-0.26;69.34;102498.59;1734534;81;21108;-79
2022/03/15 06:15:12;;;;;;;88.17;52.27;;;;;;;-0.17;69.32;102502.43;1732287;81;22598;-79
2022/03/15 06:17:57;;;;;;;89.72;54.13;;;;;;;-0.08;69.22;102508.88;1733612;81;21073;-78
2022/03/15 06:20:24;;;;;;;92.05;52.65;;;;;;;0.01;69.25;102501.09;1750299;81;21081;-76
2022/03/15 06:22:51;;;;;;;88.85;51.45;;;;;;;0.08;69.13;102491.86;1721412;83;21101;-77
2022/03/15 06:25:17;;;;;;;96.32;53.63;;;;;;;0.15;69.13;102491.65;1723414;83;21861;-76
2022/03/15 06:27:44;;;;;;;95.32;54.03;;;;;;;0.25;69.19;102484.00;1733209;81;21761;-79
2022/03/15 06:30:12;;;;;;;95.85;53.33;;;;;;;0.35;69.11;102494.45;1744135;81;21119;-76
2022/03/15 06:32:39;;;;;;;88.12;51.33;;;;;;;0.46;69.03;102498.45;1722488;83;21066;-76
2022/03/15 06:35:07;;;;;;;86.00;51.23;;;;;;;0.54;68.96;102496.17;1722359;83;21152;-77
2022/03/15 06:37:42;;;;;;;81.00;48.02;;;;;;;0.66;68.94;102492.55;1729125;81;21097;-77
2022/03/15 06:40:10;;;;;;;89.28;49.50;;;;;;;0.78;68.83;102493.27;1721541;82;21875;-77
2022/03/15 06:42:38;;;;;;;79.77;49.25;;;;;;;0.87;68.62;102498.39;1705454;83;21098;-77
2022/03/15 06:45:07;;;;;;;88.03;51.55;;;;;;;0.96;68.53;102492.77;1706569;82;21120;-77
2022/03/15 06:47:36;;;;;;;81.97;49.03;;;;;;;1.10;68.43;102485.33;1710137;82;21077;-77
2022/03/15 06:50:07;;;;;;;74.97;47.73;;;;;;;1.22;68.25;102492.00;1712312;82;21074;-77
2022/03/15 06:52:32;;;;;;;79.12;49.70;;;;;;;1.31;68.15;102492.47;1708490;83;21835;-77
2022/03/15 06:54:59;;;;;;;86.87;53.35;;;;;;;1.40;68.06;102485.88;1708667;83;21053;-78
2022/03/15 06:57:26;;;;;;;110.55;63.78;;;;;;;1.49;68.12;102493.59;1707941;83;21649;-78
2022/03/15 06:59:56;;;;;;;130.52;73.12;;;;;;;1.52;68.05;102501.27;1709250;82;21025;-77
2022/03/15 07:02:22;;;;;;;130.32;70.90;;;;;;;1.54;67.95;102502.31;1713078;82;36175;-78
2022/03/15 07:04:49;;;;;;;129.40;73.78;;;;;;;1.54;67.86;102502.31;1688270;82;21808;-78
2022/03/15 07:07:16;;;;;;;129.35;71.80;;;;;;;1.58;67.78;102495.72;1707235;82;21118;-78
2022/03/15 07:09:42;;;;;;;124.62;71.45;;;;;;;1.60;67.71;102501.05;1708646;82;21101;-78
2022/03/15 07:12:09;;;;;;;141.90;75.57;;;;;;;1.61;67.68;102500.26;1708730;82;21041;-78
2022/03/15 07:14:36;;;;;;;138.20;74.87;;;;;;;1.64;67.61;102504.04;1715569;82;21085;-78
2022/03/15 07:17:03;;;;;;;140.18;75.62;;;;;;;1.70;67.57;102508.47;1727090;81;21752;-77
2022/03/15 07:19:30;;;;;;;143.78;76.47;;;;;;;1.75;67.45;102507.60;1719085;82;21074;-77
2022/03/15 07:21:57;;;;;;;145.57;77.32;;;;;;;1.77;67.37;102507.74;1719370;81;21626;-77
2022/03/15 07:24:23;;;;;;;135.00;72.27;;;;;;;1.78;67.24;102506.95;1724685;82;21030;-76
2022/03/15 07:26:50;;;;;;;131.85;73.62;;;;;;;1.86;67.31;102512.42;1735156;82;21634;-78
2022/03/15 07:29:17;;;;;;;136.10;75.97;;;;;;;1.93;67.29;102506.63;1719821;82;21743;-78
2022/03/15 07:31:44;;;;;;;116.73;72.08;;;;;;;1.99;67.19;102498.83;1725405;82;21137;-78
2022/03/15 07:34:10;;;;;;;112.97;69.40;;;;;;;2.06;67.08;102506.39;1719366;82;21065;-78
2022/03/15 07:36:37;;;;;;;122.10;70.08;;;;;;;2.11;67.02;102507.31;1720600;82;21085;-78
2022/03/15 07:39:06;;;;;;;122.42;70.85;;;;;;;2.16;66.86;102504.20;1699978;83;21037;-77
2022/03/15 07:41:37;;;;;;;123.55;71.12;;;;;;;2.20;66.84;102499.42;1718329;82;22616;-77
2022/03/15 07:44:01;;;;;;;119.17;69.42;;;;;;;2.28;66.76;102497.09;1735389;82;21086;-78
2022/03/15 07:46:27;;;;;;;115.92;65.17;;;;;;;2.36;66.77;102496.84;1739666;81;21866;-77
2022/03/15 07:48:54;;;;;;;115.25;66.72;;;;;;;2.42;66.61;102493.09;1725961;82;21082;-77
2022/03/15 07:51:21;;;;;;;110.30;64.45;;;;;;;2.46;66.54;102495.54;1739530;81;21134;-77
2022/03/15 07:53:47;;;;;;;115.42;65.45;;;;;;;2.53;66.52;102509.59;1724036;82;21711;-78
2022/03/15 07:56:14;;;;;;;109.87;64.77;;;;;;;2.61;66.50;102514.14;1734654;82;21077;-78
2022/03/15 07:58:40;;;;;;;108.67;66.07;;;;;;;2.67;66.51;102522.09;1727361;82;21035;-78
2022/03/15 08:01:08;;;;;;;103.25;61.45;;;;;;;2.75;66.52;102517.94;1722061;82;21113;-78
2022/03/15 08:03:34;;;;;;;94.72;59.20;;;;;;;2.83;66.44;102515.58;1729590;82;21004;-77
2022/03/15 08:06:01;;;;;;;115.17;64.95;;;;;;;2.91;66.29;102522.36;1718842;82;22648;-78
2022/03/15 08:08:28;;;;;;;104.95;64.32;;;;;;;2.95;66.26;102530.94;1726126;81;21584;-78
2022/03/15 08:10:55;;;;;;;103.07;63.28;;;;;;;3.02;66.18;102525.84;1718418;82;21090;-78
2022/03/15 08:13:23;;;;;;;116.47;68.42;;;;;;;3.06;66.14;102533.12;1718773;82;21058;-78
2022/03/15 08:15:50;;;;;;;120.87;71.95;;;;;;;3.15;66.13;102537.80;1717923;82;21364;-78
2022/03/15 08:18:17;;;;;;;112.22;64.03;;;;;;;3.21;66.07;102538.70;1718431;82;21757;-77
2022/03/15 08:20:44;;;;;;;96.20;57.80;;;;;;;3.26;66.03;102539.59;1760998;80;21029;-77
2022/03/15 08:23:10;;;;;;;89.52;58.38;;;;;;;3.38;66.27;102542.70;1755457;80;21094;-77
2022/03/15 08:25:37;;;;;;;88.47;56.83;;;;;;;3.47;66.33;102532.68;1774948;80;21120;-77
2022/03/15 08:28:05;;;;;;;98.52;58.05;;;;;;;3.56;66.26;102528.59;1768003;80;21164;-78
2022/03/15 08:30:31;;;;;;;90.50;56.58;;;;;;;3.66;66.37;102530.25;1772274;80;21777;-78
2022/03/15 08:32:58;;;;;;;83.80;56.53;;;;;;;3.79;66.38;102528.25;1743202;80;21072;-78
2022/03/15 08:35:25;;;;;;;98.37;62.65;;;;;;;3.91;66.16;102528.36;1758517;80;21117;-78
2022/03/15 08:37:51;;;;;;;87.42;55.60;;;;;;;4.03;65.97;102539.75;1758206;80;21056;-78
2022/03/15 08:40:19;;;;;;;104.90;64.10;;;;;;;4.14;65.83;102537.60;1753628;80;21638;-78
2022/03/15 08:42:46;;;;;;;97.20;60.90;;;;;;;4.23;65.65;102539.64;1762500;80;22610;-78
2022/03/15 08:45:13;;;;;;;100.82;62.35;;;;;;;4.36;65.70;102541.52;1761669;80;21036;-78
2022/03/15 08:47:40;;;;;;;108.03;62.38;;;;;;;4.47;65.63;102532.84;1765731;80;21054;-78
2022/03/15 08:50:07;;;;;;;91.10;60.83;;;;;;;4.58;65.46;102540.58;1752161;80;21168;-78
2022/03/15 08:52:34;;;;;;;106.17;63.78;;;;;;;4.66;65.30;102539.50;1706680;82;21038;-78
2022/03/15 08:55:00;;;;;;;93.12;57.95;;;;;;;4.76;65.17;102530.28;1724978;81;22569;-78
2022/03/15 08:57:27;;;;;;;96.47;59.38;;;;;;;4.86;65.06;102534.13;1695730;83;20996;-78
2022/03/15 08:59:53;;;;;;;99.22;60.55;;;;;;;4.96;64.90;102528.30;1726035;82;21113;-78
2022/03/15 09:02:21;;;;;;;104.27;61.55;;;;;;;5.07;64.78;102530.03;1734636;81;21088;-78
2022/03/15 09:04:47;;;;;;;102.17;62.35;;;;;;;5.18;64.65;102530.45;1736776;81;21072;-78
2022/03/15 09:07:14;;;;;;;96.53;59.08;;;;;;;5.29;64.46;102523.80;1753780;81;21736;-78
2022/03/15 09:09:41;;;;;;;99.58;63.02;;;;;;;5.40;64.25;102528.13;1748146;81;22233;-78
2022/03/15 09:12:09;;;;;;;101.90;63.63;;;;;;;5.50;64.17;102522.80;1737530;81;21073;-79
2022/03/15 09:14:36;;;;;;;100.42;65.10;;;;;;;5.62;64.06;102517.16;1741356;81;21072;-78
2022/03/15 09:17:03;;;;;;;99.90;62.88;;;;;;;5.74;63.98;102516.23;1751753;81;21080;-77
2022/03/15 09:19:32;;;;;;;111.95;64.30;;;;;;;5.86;63.88;102510.61;1733653;81;21808;-79
2022/03/15 09:22:01;;;;;;;103.60;62.10;;;;;;;5.99;63.76;102514.65;1706392;82;21089;-78
2022/03/15 09:24:27;;;;;;;94.32;59.45;;;;;;;6.09;63.44;102512.69;1701238;83;21602;-79
2022/03/15 09:26:53;;;;;;;92.12;58.02;;;;;;;6.19;63.33;102511.23;1738650;81;21065;-78
2022/03/15 09:29:20;;;;;;;95.00;58.15;;;;;;;6.30;63.11;102509.38;1724210;82;21702;-76
2022/03/15 09:31:47;;;;;;;82.02;53.63;;;;;;;6.40;62.95;102496.12;1699526;82;23848;-79
2022/03/15 09:34:14;;;;;;;90.95;52.65;;;;;;;6.53;62.76;102501.83;1722495;82;21039;-79
2022/03/15 09:36:44;;;;;;;85.57;57.38;;;;;;;6.67;62.70;102499.77;1721187;81;21086;-78
2022/03/15 09:39:11;;;;;;;98.82;60.15;;;;;;;6.80;62.57;102502.42;1732911;81;21082;-78
2022/03/15 09:41:39;;;;;;;85.47;53.68;;;;;;;6.91;62.31;102498.34;1736418;81;21089;-79
2022/03/15 09:44:08;;;;;;;85.50;55.10;;;;;;;6.98;62.08;102494.00;1725007;81;22260;-78
2022/03/15 09:46:40;;;;;;;86.42;54.05;;;;;;;7.07;61.75;102485.87;1733482;81;21321;-78
2022/03/15 09:49:07;;;;;;;85.05;52.38;;;;;;;7.15;61.54;102484.66;1733542;81;21136;-78
2022/03/15 09:51:35;;;;;;;93.10;62.23;;;;;;;7.25;61.43;102485.79;1747128;81;20990;-78
2022/03/15 09:54:04;;;;;;;88.95;59.73;;;;;;;7.34;61.11;102485.09;1706942;81;21115;-77
2022/03/15 09:56:38;;;;;;;74.05;51.08;;;;;;;7.43;60.99;102482.56;1733342;81;21751;-78
2022/03/15 09:58:59;;;;;;;75.97;50.40;;;;;;;7.52;60.83;102479.23;1715833;81;21088;-78
2022/03/15 10:01:26;;;;;;;82.80;54.05;;;;;;;7.61;60.54;102481.55;1730882;81;21080;-79
2022/03/15 10:03:52;;;;;;;74.92;49.25;;;;;;;7.69;60.47;102479.02;1742829;81;21065;-79
2022/03/15 10:06:20;;;;;;;92.62;53.70;;;;;;;7.79;60.28;102478.81;1730697;81;21654;-78
2022/03/15 10:08:47;;;;;;;85.17;55.78;;;;;;;7.88;60.04;102474.16;1729755;82;21772;-78
2022/03/15 10:11:16;;;;;;;77.85;50.83;;;;;;;7.96;59.90;102470.30;1708362;81;21096;-79
2022/03/15 10:13:43;;;;;;;76.50;47.62;;;;;;;8.08;59.66;102469.25;1734033;81;21499;-78
2022/03/15 10:16:14;;;;;;;65.42;45.65;;;;;;;8.16;59.36;102458.83;1733765;81;21070;-77
2022/03/15 10:18:53;;;;;;;76.25;50.33;;;;;;;8.24;59.05;102457.98;1734418;81;21084;-79
2022/03/15 10:21:24;;;;;;;70.72;47.20;;;;;;;8.31;58.89;102458.45;1734246;81;22592;-78
2022/03/15 10:23:49;;;;;;;69.17;48.50;;;;;;;8.38;58.65;102455.81;1734795;81;21057;-77
2022/03/15 10:26:25;;;;;;;73.85;48.35;;;;;;;8.46;58.62;102449.34;1734255;81;21374;-77
2022/03/15 10:28:53;;;;;;;68.90;47.62;;;;;;;8.54;58.41;102438.92;1734335;81;21630;-77
2022/03/15 10:31:24;;;;;;;73.15;47.73;;;;;;;8.64;58.17;102439.06;1714316;81;21481;-77
2022/03/15 10:33:52;;;;;;;63.75;44.50;;;;;;;8.77;58.05;102441.12;1731377;81;22617;-77
2022/03/15 10:36:19;;;;;;;64.87;44.00;;;;;;;8.86;57.60;102435.06;1731291;81;21120;-78
2022/03/15 10:38:47;;;;;;;67.42;43.95;;;;;;;8.94;57.28;102434.71;1736402;81;21093;-77
2022/03/15 10:41:15;;;;;;;64.92;43.00;;;;;;;9.02;56.97;102422.02;1731640;81;21098;-78
2022/03/15 10:43:42;;;;;;;68.40;43.50;;;;;;;9.10;56.83;102423.39;1731345;81;21034;-77
2022/03/15 10:46:12;;;;;;;75.40;49.45;;;;;;;9.18;56.53;102419.89;1698277;81;21839;-77
2022/03/15 10:48:39;;;;;;;58.45;37.90;;;;;;;9.29;56.28;102417.85;1730051;81;21113;-77
2022/03/15 10:51:14;;;;;;;59.60;39.73;;;;;;;9.38;55.99;102416.17;1746158;81;21069;-77
2022/03/15 10:53:46;;;;;;;58.90;41.05;;;;;;;9.47;55.80;102421.95;1740542;81;21103;-78
2022/03/15 10:56:19;;;;;;;61.35;36.17;;;;;;;9.59;55.44;102417.39;1740037;81;21139;-78
2022/03/15 10:59:04;;;;;;;53.17;35.90;;;;;;;9.69;55.29;102418.80;1718610;82;22424;-78
2022/03/15 11:01:38;;;;;;;47.62;34.85;;;;;;;9.80;54.96;102415.42;1748549;81;21077;-78
2022/03/15 11:04:08;;;;;;;42.45;30.90;;;;;;;9.91;54.63;102411.69;1719444;81;21315;-78
2022/03/15 11:06:48;;;;;;;50.33;32.93;;;;;;;10.01;54.36;102409.13;1721313;81;21457;-78
2022/03/15 11:09:26;;;;;;;46.13;33.00;;;;;;;10.07;54.08;102397.20;1739383;81;21069;-78